createdAt,value
2023-02-13T00:00:23.704Z,96447.41
2023-02-13T00:02:50.420Z,96438.69
2023-02-13T00:05:17.851Z,96455.84
2023-02-13T00:07:44.614Z,96434.91
2023-02-13T00:10:12.549Z,96419.69
2023-02-13T00:12:39.936Z,96415.41
2023-02-13T00:15:07.505Z,96429.16
2023-02-13T00:17:34.607Z,96411.78
2023-02-13T00:20:01.941Z,96427.44
2023-02-13T00:22:28.756Z,96439.78
2023-02-13T00:24:55.437Z,96428.25
2023-02-13T00:27:22.395Z,96439.28
2023-02-13T00:29:49.475Z,96409.59
2023-02-13T00:32:16.515Z,96433.91
2023-02-13T00:34:44.182Z,96421.53
2023-02-13T00:37:12.136Z,96442.72
2023-02-13T00:39:38.911Z,96436.16
2023-02-13T00:42:06.220Z,96442.41
2023-02-13T00:44:33.251Z,96448.56
2023-02-13T00:47:01.554Z,96447.78
2023-02-13T00:49:28.546Z,96443.44
2023-02-13T00:51:55.318Z,96430.13
2023-02-13T00:54:22.526Z,96434.41
2023-02-13T00:56:50.097Z,96399.75
2023-02-13T00:59:17.738Z,96428.78
2023-02-13T01:01:45.392Z,96410.63
2023-02-13T01:04:12.363Z,96411.03
2023-02-13T01:06:39.265Z,96423.63
2023-02-13T01:09:06.300Z,96420.44
2023-02-13T01:11:33.435Z,96421.03
2023-02-13T01:14:00.867Z,96418.19
2023-02-13T01:16:27.991Z,96414.19
2023-02-13T01:18:55.846Z,96409.16
2023-02-13T01:21:26.678Z,96381.88
2023-02-13T01:23:53.428Z,96396.59
2023-02-13T01:26:23.429Z,96401.25
2023-02-13T01:28:54.897Z,96379.81
2023-02-13T01:31:22.224Z,96364.06
2023-02-13T01:33:50.785Z,96368.88
2023-02-13T01:36:21.214Z,96388.22
2023-02-13T01:38:48.881Z,96395.06
2023-02-13T01:41:15.996Z,96390.38
2023-02-13T01:44:13.465Z,96396.81
2023-02-13T01:46:44.111Z,96369.03
2023-02-13T01:49:23.615Z,96388.75
2023-02-13T01:51:54.144Z,96382.41
2023-02-13T01:54:31.234Z,96374.78
2023-02-13T01:57:17.148Z,96382.59
2023-02-13T01:59:50.581Z,96388.78
2023-02-13T02:02:19.426Z,96381.06
2023-02-13T02:04:49.064Z,96374.78
2023-02-13T02:07:23.531Z,96392.06
2023-02-13T02:09:54.136Z,96405.91
2023-02-13T02:12:58.651Z,96410.31
2023-02-13T02:15:26.754Z,96418.34
2023-02-13T02:17:53.489Z,96416.94
2023-02-13T02:20:52.871Z,96426.34
2023-02-13T02:23:48.271Z,96425.31
2023-02-13T02:26:37.665Z,96434.06
2023-02-13T02:29:37.479Z,96435.22
2023-02-13T02:32:26.143Z,96434.41
2023-02-13T02:35:02.560Z,96423.91
2023-02-13T02:38:00.655Z,96436.38
2023-02-13T02:40:35.176Z,96439.28
2023-02-13T02:43:09.548Z,96428.84
2023-02-13T02:45:58.261Z,96441.38
2023-02-13T02:48:52.156Z,96458.25
2023-02-13T02:51:30.858Z,96436.94
2023-02-13T02:54:43.150Z,96458.44
2023-02-13T02:57:16.506Z,96449.63
2023-02-13T03:00:07.908Z,96441.50
2023-02-13T03:02:54.095Z,96450.97
2023-02-13T03:06:00.596Z,96427.84
2023-02-13T03:08:47.796Z,96413.31
2023-02-13T03:11:33.286Z,96425.47
2023-02-13T03:14:03.084Z,96421.25
2023-02-13T03:16:48.436Z,96420.72
2023-02-13T03:20:02.023Z,96406.69
2023-02-13T03:22:53.553Z,96416.13
2023-02-13T03:25:34.925Z,96418.16
2023-02-13T03:28:35.820Z,96406.81
2023-02-13T03:31:35.965Z,96442.44
2023-02-13T03:34:11.958Z,96453.53
2023-02-13T03:37:07.636Z,96446.69
2023-02-13T03:39:56.887Z,96444.84
2023-02-13T03:42:32.636Z,96413.34
2023-02-13T03:45:23.266Z,96411.28
2023-02-13T03:47:55.158Z,96449.09
2023-02-13T03:50:23.754Z,96426.44
2023-02-13T03:52:53.164Z,96427.06
2023-02-13T03:55:43.041Z,96444.81
2023-02-13T03:58:37.204Z,96463.59
2023-02-13T04:01:08.098Z,96447.34
2023-02-13T04:04:08.868Z,96438.59
2023-02-13T04:06:56.670Z,96445.69
2023-02-13T04:09:25.257Z,96458.94
2023-02-13T04:12:33.733Z,96473.00
2023-02-13T04:15:15.420Z,96440.03
2023-02-13T04:17:48.771Z,96430.88
2023-02-13T04:20:15.948Z,96443.97
2023-02-13T04:22:45.517Z,96409.72
2023-02-13T04:25:15.498Z,96434.22
2023-02-13T04:27:42.410Z,96434.38
2023-02-13T04:30:09.679Z,96414.00
2023-02-13T04:32:36.812Z,96419.88
2023-02-13T04:35:04.124Z,96425.53
2023-02-13T04:37:30.972Z,96421.75
2023-02-13T04:39:57.679Z,96417.81
2023-02-13T04:42:24.531Z,96441.91
2023-02-13T04:44:51.768Z,96432.47
2023-02-13T04:47:18.820Z,96424.34
2023-02-13T04:49:45.498Z,96438.56
2023-02-13T04:52:12.361Z,96419.28
2023-02-13T04:54:39.291Z,96435.97
2023-02-13T04:57:06.047Z,96458.03
2023-02-13T04:59:32.929Z,96459.59
2023-02-13T05:01:59.753Z,96429.00
2023-02-13T05:04:27.012Z,96434.47
2023-02-13T05:06:53.832Z,96434.03
2023-02-13T05:09:20.810Z,96457.88
2023-02-13T05:11:47.757Z,96450.97
2023-02-13T05:14:14.579Z,96452.53
2023-02-13T05:16:41.283Z,96434.16
2023-02-13T05:19:08.041Z,96423.06
2023-02-13T05:21:53.256Z,96413.81
2023-02-13T05:24:20.726Z,96430.72
2023-02-13T05:26:47.696Z,96433.31
2023-02-13T05:29:22.644Z,96440.84
2023-02-13T05:31:52.997Z,96448.34
2023-02-13T05:34:21.191Z,96459.22
2023-02-13T05:36:48.200Z,96466.91
2023-02-13T05:39:15.988Z,96488.88
2023-02-13T05:41:44.396Z,96495.00
2023-02-13T05:44:11.553Z,96483.81
2023-02-13T05:46:39.651Z,96490.31
2023-02-13T05:49:08.654Z,96476.28
2023-02-13T05:51:35.522Z,96499.03
2023-02-13T05:54:02.836Z,96481.53
2023-02-13T05:56:30.065Z,96499.13
2023-02-13T05:58:57.615Z,96497.91
2023-02-13T06:01:25.134Z,96500.28
2023-02-13T06:03:52.573Z,96497.09
2023-02-13T06:06:20.066Z,96490.13
2023-02-13T06:08:46.837Z,96496.38
2023-02-13T06:11:13.603Z,96508.41
2023-02-13T06:13:40.925Z,96501.53
2023-02-13T06:16:09.852Z,96506.72
2023-02-13T06:18:37.801Z,96513.94
2023-02-13T06:21:05.642Z,96517.44
2023-02-13T06:23:32.491Z,96534.31
2023-02-13T06:26:07.740Z,96523.78
2023-02-13T06:28:34.856Z,96517.03
2023-02-13T06:31:02.310Z,96498.84
2023-02-13T06:33:31.078Z,96495.31
2023-02-13T06:35:57.875Z,96516.94
2023-02-13T06:38:24.649Z,96516.94
2023-02-13T06:40:51.818Z,96515.72
2023-02-13T06:43:18.972Z,96508.69
2023-02-13T06:45:47.316Z,96531.28
2023-02-13T06:48:14.699Z,96528.94
2023-02-13T06:50:41.505Z,96541.31
2023-02-13T06:53:08.496Z,96528.38
2023-02-13T06:55:36.546Z,96532.84
2023-02-13T06:58:03.303Z,96514.72
2023-02-13T07:00:30.178Z,96517.16
2023-02-13T07:03:05.542Z,96518.50
2023-02-13T07:05:32.866Z,96533.53
2023-02-13T07:07:59.897Z,96539.06
2023-02-13T07:10:26.892Z,96536.78
2023-02-13T07:13:04.968Z,96571.31
2023-02-13T07:15:37.047Z,96572.75
2023-02-13T07:18:05.442Z,96575.31
2023-02-13T07:20:33.107Z,96565.41
2023-02-13T07:23:01.245Z,96580.03
2023-02-13T07:25:28.982Z,96583.91
2023-02-13T07:27:56.187Z,96592.84
2023-02-13T07:30:23.407Z,96570.41
2023-02-13T07:32:52.284Z,96602.38
2023-02-13T07:35:19.377Z,96568.66
2023-02-13T07:37:46.366Z,96542.09
2023-02-13T07:40:13.220Z,96573.97
2023-02-13T07:42:39.854Z,96584.59
2023-02-13T07:45:07.653Z,96580.41
2023-02-13T07:47:35.187Z,96590.72
2023-02-13T07:50:03.156Z,96608.78
2023-02-13T07:52:30.340Z,96623.13
2023-02-13T07:54:57.079Z,96617.28
2023-02-13T07:57:24.054Z,96617.38
2023-02-13T07:59:51.005Z,96614.53
2023-02-13T08:02:17.728Z,96630.41
2023-02-13T08:04:47.544Z,96634.44
2023-02-13T08:07:16.415Z,96635.03
2023-02-13T08:10:05.164Z,96630.38
2023-02-13T08:12:35.035Z,96627.34
2023-02-13T08:15:01.893Z,96627.03
2023-02-13T08:17:28.615Z,96617.22
2023-02-13T08:19:55.341Z,96627.00
2023-02-13T08:22:22.801Z,96623.72
2023-02-13T08:24:49.727Z,96625.97
2023-02-13T08:27:16.685Z,96625.03
2023-02-13T08:29:43.476Z,96632.84
2023-02-13T08:32:10.357Z,96637.78
2023-02-13T08:34:37.154Z,96635.88
2023-02-13T08:37:04.375Z,96639.53
2023-02-13T08:39:31.181Z,96632.94
2023-02-13T08:41:57.916Z,96634.84
2023-02-13T08:44:24.654Z,96629.50
2023-02-13T08:46:51.403Z,96632.44
2023-02-13T08:49:18.459Z,96642.50
2023-02-13T08:51:45.212Z,96634.72
2023-02-13T08:54:12.245Z,96637.47
2023-02-13T08:56:39.382Z,96626.19
2023-02-13T08:59:06.397Z,96636.72
2023-02-13T09:01:33.187Z,96636.28
2023-02-13T09:04:00.377Z,96625.72
2023-02-13T09:06:27.773Z,96632.03
2023-02-13T09:08:55.357Z,96633.91
2023-02-13T09:11:23.534Z,96627.19
2023-02-13T09:13:54.269Z,96620.72
2023-02-13T09:16:21.473Z,96634.72
2023-02-13T09:18:49.053Z,96617.56
2023-02-13T09:21:17.085Z,96597.25
2023-02-13T09:23:44.007Z,96610.75
2023-02-13T09:26:12.982Z,96619.28
2023-02-13T09:28:41.003Z,96627.19
2023-02-13T09:31:16.663Z,96638.09
2023-02-13T09:33:45.479Z,96610.06
2023-02-13T09:36:16.593Z,96625.72
2023-02-13T09:38:44.241Z,96647.63
2023-02-13T09:41:23.384Z,96613.94
2023-02-13T09:43:55.192Z,96628.59
2023-02-13T09:46:29.347Z,96635.06
2023-02-13T09:48:59.158Z,96630.44
2023-02-13T09:51:27.843Z,96618.22
2023-02-13T09:53:57.961Z,96626.78
2023-02-13T09:56:52.737Z,96617.53
2023-02-13T09:59:22.831Z,96633.84
2023-02-13T10:01:53.796Z,96620.34
2023-02-13T10:04:26.395Z,96615.25
2023-02-13T10:07:47.740Z,96602.59
2023-02-13T10:10:32.575Z,96620.41
2023-02-13T10:13:23.798Z,96615.56
2023-02-13T10:15:50.951Z,96628.81
2023-02-13T10:18:32.368Z,96624.47
2023-02-13T10:21:02.693Z,96631.28
2023-02-13T10:23:40.651Z,96615.78
2023-02-13T10:26:22.675Z,96629.19
2023-02-13T10:29:41.210Z,96619.97
2023-02-13T10:32:13.798Z,96610.53
2023-02-13T10:34:46.101Z,96609.97
2023-02-13T10:37:18.845Z,96629.28
2023-02-13T10:39:49.397Z,96595.66
2023-02-13T10:42:26.389Z,96598.38
2023-02-13T10:45:18.029Z,96611.88
2023-02-13T10:48:26.026Z,96617.78
2023-02-13T10:51:10.171Z,96602.75
2023-02-13T10:54:24.599Z,96578.63
2023-02-13T10:56:59.918Z,96603.75
2023-02-13T11:00:17.473Z,96609.44
2023-02-13T11:02:44.888Z,96599.19
2023-02-13T11:05:24.287Z,96616.13
2023-02-13T11:07:51.724Z,96595.09
2023-02-13T11:10:23.597Z,96597.53
2023-02-13T11:12:51.691Z,96591.59
2023-02-13T11:15:30.962Z,96603.25
2023-02-13T11:18:01.293Z,96594.13
2023-02-13T11:20:37.964Z,96590.47
2023-02-13T11:23:29.663Z,96604.41
2023-02-13T11:26:04.213Z,96602.28
2023-02-13T11:28:37.870Z,96590.69
2023-02-13T11:31:26.841Z,96594.41
2023-02-13T11:33:53.806Z,96601.13
2023-02-13T11:36:30.342Z,96600.69
2023-02-13T11:38:59.816Z,96609.63
2023-02-13T11:41:26.973Z,96597.09
2023-02-13T11:44:01.262Z,96590.72
2023-02-13T11:46:46.174Z,96590.03
2023-02-13T11:49:24.754Z,96581.75
2023-02-13T11:51:58.578Z,96579.63
2023-02-13T11:54:41.193Z,96548.13
2023-02-13T11:57:26.021Z,96591.69
2023-02-13T11:59:53.591Z,96606.03
2023-02-13T12:02:31.744Z,96597.13
2023-02-13T12:05:23.314Z,96576.13
2023-02-13T12:07:51.020Z,96582.84
2023-02-13T12:10:24.134Z,96592.88
2023-02-13T12:12:53.926Z,96569.34
2023-02-13T12:15:26.934Z,96580.63
2023-02-13T12:18:08.330Z,96600.09
2023-02-13T12:21:03.214Z,96577.63
2023-02-13T12:24:04.549Z,96593.31
2023-02-13T12:26:42.772Z,96588.69
2023-02-13T12:29:27.722Z,96569.81
2023-02-13T12:32:31.556Z,96562.03
2023-02-13T12:35:16.774Z,96549.03
2023-02-13T12:37:53.647Z,96556.03
2023-02-13T12:40:28.593Z,96549.97
2023-02-13T12:43:22.346Z,96546.25
2023-02-13T12:46:01.337Z,96555.38
2023-02-13T12:48:28.157Z,96544.59
2023-02-13T12:51:06.382Z,96537.06
2023-02-13T12:54:07.519Z,96549.16
2023-02-13T12:57:02.388Z,96540.47
2023-02-13T12:59:50.613Z,96536.69
2023-02-13T13:02:52.563Z,96539.94
2023-02-13T13:05:45.251Z,96562.94
2023-02-13T13:08:25.486Z,96539.88
2023-02-13T13:11:16.431Z,96513.13
2023-02-13T13:14:03.667Z,96515.69
2023-02-13T13:16:45.366Z,96520.84
2023-02-13T13:19:50.512Z,96545.09
2023-02-13T13:22:33.873Z,96536.81
2023-02-13T13:25:20.356Z,96544.59
2023-02-13T13:27:51.142Z,96536.59
2023-02-13T13:30:25.132Z,96552.19
2023-02-13T13:33:04.941Z,96525.81
2023-02-13T13:35:33.574Z,96544.72
2023-02-13T13:38:15.229Z,96550.16
2023-02-13T13:40:57.386Z,96545.16
2023-02-13T13:43:40.989Z,96544.41
2023-02-13T13:46:08.124Z,96548.09
2023-02-13T13:48:53.241Z,96550.59
2023-02-13T13:51:20.696Z,96563.16
2023-02-13T13:54:20.160Z,96567.25
2023-02-13T13:56:53.117Z,96561.31
2023-02-13T13:59:51.715Z,96545.84
2023-02-13T14:02:18.697Z,96551.91
2023-02-13T14:05:02.787Z,96556.94
2023-02-13T14:07:38.574Z,96542.25
2023-02-13T14:10:06.613Z,96540.53
2023-02-13T14:12:33.266Z,96548.34
2023-02-13T14:15:01.816Z,96550.59
2023-02-13T14:17:46.777Z,96553.56
2023-02-13T14:20:41.322Z,96545.47
2023-02-13T14:23:17.594Z,96559.09
2023-02-13T14:25:44.970Z,96563.09
2023-02-13T14:28:23.382Z,96566.75
2023-02-13T14:30:55.786Z,96574.44
2023-02-13T14:33:30.145Z,96543.63
2023-02-13T14:36:08.550Z,96546.91
2023-02-13T14:38:36.549Z,96536.00
2023-02-13T14:41:04.164Z,96554.63
2023-02-13T14:43:35.878Z,96534.72
2023-02-13T14:46:20.874Z,96547.31
2023-02-13T14:49:06.959Z,96543.66
2023-02-13T14:51:41.416Z,96540.66
2023-02-13T14:54:49.632Z,96532.06
2023-02-13T14:57:29.823Z,96524.41
2023-02-13T15:00:01.323Z,96525.63
2023-02-13T15:02:33.556Z,96535.31
2023-02-13T15:05:04.829Z,96551.28
2023-02-13T15:07:36.693Z,96531.69
2023-02-13T15:10:32.181Z,96537.56
2023-02-13T15:13:00.610Z,96491.50
2023-02-13T15:15:29.891Z,96511.25
2023-02-13T15:18:37.208Z,96485.34
2023-02-13T15:21:04.653Z,96516.03
2023-02-13T15:23:33.903Z,96516.47
2023-02-13T15:26:06.268Z,96516.66
2023-02-13T15:28:35.032Z,96492.81
2023-02-13T15:31:07.359Z,96496.81
2023-02-13T15:33:48.873Z,96512.91
2023-02-13T15:36:22.468Z,96508.41
2023-02-13T15:38:49.223Z,96507.81
2023-02-13T15:41:28.305Z,96489.81
2023-02-13T15:44:00.190Z,96481.25
2023-02-13T15:46:38.795Z,96503.59
2023-02-13T15:49:09.402Z,96489.06
2023-02-13T15:51:36.694Z,96496.13
2023-02-13T15:54:06.617Z,96484.53
2023-02-13T15:56:34.185Z,96497.81
2023-02-13T15:59:01.783Z,96496.31
2023-02-13T16:01:29.312Z,96491.41
2023-02-13T16:04:09.427Z,96477.44
2023-02-13T16:06:36.640Z,96470.56
2023-02-13T16:09:04.512Z,96483.19
2023-02-13T16:11:45.226Z,96485.09
2023-02-13T16:14:24.808Z,96502.69
2023-02-13T16:17:16.984Z,96506.69
2023-02-13T16:20:06.823Z,96494.16
2023-02-13T16:23:02.779Z,96499.06
2023-02-13T16:25:32.177Z,96486.91
2023-02-13T16:28:01.579Z,96495.88
2023-02-13T16:30:33.363Z,96509.72
2023-02-13T16:33:15.629Z,96526.63
2023-02-13T16:35:51.395Z,96503.66
2023-02-13T16:38:31.844Z,96509.09
2023-02-13T16:41:28.894Z,96509.50
2023-02-13T16:44:00.103Z,96522.63
2023-02-13T16:46:26.793Z,96531.06
2023-02-13T16:48:56.621Z,96535.97
2023-02-13T16:51:36.639Z,96533.75
2023-02-13T16:54:19.849Z,96513.34
2023-02-13T16:56:49.962Z,96494.28
2023-02-13T16:59:38.227Z,96518.75
2023-02-13T17:02:25.385Z,96528.94
2023-02-13T17:05:11.854Z,96524.22
2023-02-13T17:07:51.148Z,96537.25
2023-02-13T17:10:27.332Z,96530.31
2023-02-13T17:12:56.668Z,96508.47
2023-02-13T17:15:25.555Z,96518.44
2023-02-13T17:17:53.834Z,96531.88
2023-02-13T17:20:32.636Z,96539.97
2023-02-13T17:23:02.556Z,96528.66
2023-02-13T17:25:35.425Z,96519.38
2023-02-13T17:28:07.564Z,96525.00
2023-02-13T17:30:34.467Z,96519.06
2023-02-13T17:33:12.077Z,96540.22
2023-02-13T17:35:38.956Z,96528.06
2023-02-13T17:38:07.568Z,96542.91
2023-02-13T17:40:34.278Z,96532.59
2023-02-13T17:43:01.480Z,96545.31
2023-02-13T17:45:30.713Z,96527.31
2023-02-13T17:47:58.293Z,96544.81
2023-02-13T17:50:30.517Z,96523.56
2023-02-13T17:52:58.365Z,96544.25
2023-02-13T17:55:28.727Z,96540.78
2023-02-13T17:57:57.128Z,96540.16
2023-02-13T18:00:29.534Z,96535.63
2023-02-13T18:02:58.444Z,96547.22
2023-02-13T18:05:25.936Z,96551.78
2023-02-13T18:07:52.697Z,96544.00
2023-02-13T18:10:25.924Z,96550.44
2023-02-13T18:12:54.506Z,96554.09
2023-02-13T18:15:21.865Z,96536.16
2023-02-13T18:17:49.128Z,96542.47
2023-02-13T18:20:18.956Z,96553.72
2023-02-13T18:22:45.748Z,96526.66
2023-02-13T18:25:13.706Z,96528.72
2023-02-13T18:27:40.431Z,96548.75
2023-02-13T18:30:09.247Z,96531.13
2023-02-13T18:32:36.185Z,96533.88
2023-02-13T18:35:03.329Z,96509.16
2023-02-13T18:37:30.657Z,96524.63
2023-02-13T18:39:57.550Z,96513.94
2023-02-13T18:42:24.426Z,96504.00
2023-02-13T18:44:51.463Z,96500.00
2023-02-13T18:47:18.849Z,96522.19
2023-02-13T18:49:46.501Z,96502.25
2023-02-13T18:52:13.426Z,96508.00
2023-02-13T18:54:40.666Z,96516.03
2023-02-13T18:57:08.593Z,96505.72
2023-02-13T18:59:35.313Z,96501.25
2023-02-13T19:02:04.116Z,96514.22
2023-02-13T19:04:31.474Z,96514.16
2023-02-13T19:06:58.370Z,96503.13
2023-02-13T19:09:25.745Z,96517.13
2023-02-13T19:11:53.129Z,96494.84
2023-02-13T19:14:19.948Z,96496.41
2023-02-13T19:16:46.671Z,96497.09
2023-02-13T19:19:13.561Z,96512.72
2023-02-13T19:21:41.282Z,96497.56
2023-02-13T19:24:09.713Z,96492.22
2023-02-13T19:26:36.677Z,96477.69
2023-02-13T19:29:04.498Z,96496.66
2023-02-13T19:31:32.835Z,96497.97
2023-02-13T19:34:00.864Z,96506.13
2023-02-13T19:36:31.057Z,96484.09
2023-02-13T19:39:02.742Z,96487.66
2023-02-13T19:41:31.307Z,96502.91
2023-02-13T19:43:58.575Z,96484.75
2023-02-13T19:46:28.118Z,96506.94
2023-02-13T19:48:55.524Z,96501.25
2023-02-13T19:51:25.068Z,96504.66
2023-02-13T19:53:58.192Z,96506.03
2023-02-13T19:56:27.247Z,96513.09
2023-02-13T19:58:54.084Z,96502.75
2023-02-13T20:01:23.124Z,96473.09
2023-02-13T20:03:50.976Z,96466.50
2023-02-13T20:06:38.904Z,96473.97
2023-02-13T20:09:09.178Z,96479.03
2023-02-13T20:11:36.416Z,96476.31
2023-02-13T20:14:05.446Z,96485.16
2023-02-13T20:16:35.526Z,96517.69
2023-02-13T20:19:07.119Z,96519.00
2023-02-13T20:21:34.973Z,96503.84
2023-02-13T20:24:03.244Z,96523.09
2023-02-13T20:26:31.254Z,96512.00
2023-02-13T20:29:00.035Z,96507.13
2023-02-13T20:31:27.792Z,96511.97
2023-02-13T20:33:55.089Z,96504.56
2023-02-13T20:36:24.648Z,96512.78
2023-02-13T20:38:54.839Z,96495.94
2023-02-13T20:41:24.300Z,96510.19
2023-02-13T20:43:51.364Z,96530.81
2023-02-13T20:46:18.948Z,96520.25
2023-02-13T20:48:47.575Z,96531.91
2023-02-13T20:51:16.993Z,96532.13
2023-02-13T20:53:45.572Z,96533.00
2023-02-13T20:56:18.130Z,96516.88
2023-02-13T20:58:46.830Z,96517.38
2023-02-13T21:01:37.501Z,96506.72
2023-02-13T21:04:04.269Z,96520.69
2023-02-13T21:06:34.605Z,96527.03
2023-02-13T21:09:02.713Z,96542.63
2023-02-13T21:11:30.735Z,96541.84
2023-02-13T21:13:58.048Z,96506.81
2023-02-13T21:16:26.737Z,96511.19
2023-02-13T21:18:56.237Z,96518.50
2023-02-13T21:21:25.199Z,96488.56
2023-02-13T21:23:56.443Z,96502.41
2023-02-13T21:26:24.484Z,96521.97
2023-02-13T21:28:51.886Z,96524.72
2023-02-13T21:31:24.005Z,96512.44
2023-02-13T21:33:52.424Z,96496.72
2023-02-13T21:36:19.848Z,96479.94
2023-02-13T21:38:46.995Z,96493.09
2023-02-13T21:41:16.373Z,96470.03
2023-02-13T21:43:46.825Z,96465.44
2023-02-13T21:46:15.629Z,96465.91
2023-02-13T21:48:42.717Z,96491.75
2023-02-13T21:51:17.697Z,96490.91
2023-02-13T21:53:45.903Z,96468.78
2023-02-13T21:56:18.396Z,96459.84
2023-02-13T21:58:46.190Z,96467.72
2023-02-13T22:01:26.837Z,96473.38
2023-02-13T22:04:01.418Z,96483.69
2023-02-13T22:06:33.482Z,96470.78
2023-02-13T22:09:05.870Z,96488.47
2023-02-13T22:11:33.490Z,96481.41
2023-02-13T22:14:02.683Z,96466.97
2023-02-13T22:16:32.288Z,96480.97
2023-02-13T22:18:59.927Z,96460.13
2023-02-13T22:21:29.327Z,96476.94
2023-02-13T22:23:56.064Z,96454.34
2023-02-13T22:26:24.565Z,96466.59
2023-02-13T22:28:52.221Z,96476.72
2023-02-13T22:31:19.290Z,96456.59
2023-02-13T22:33:52.356Z,96465.38
2023-02-13T22:36:25.968Z,96482.19
2023-02-13T22:38:53.260Z,96479.44
2023-02-13T22:41:23.273Z,96487.88
2023-02-13T22:43:51.241Z,96486.38
2023-02-13T22:46:25.360Z,96487.63
2023-02-13T22:48:53.686Z,96464.03
2023-02-13T22:51:24.504Z,96448.50
2023-02-13T22:53:55.719Z,96442.38
2023-02-13T22:56:23.642Z,96443.84
2023-02-13T22:58:50.531Z,96438.34
2023-02-13T23:01:20.220Z,96443.06
2023-02-13T23:03:47.661Z,96449.69
2023-02-13T23:06:15.701Z,96456.88
2023-02-13T23:08:43.243Z,96448.34
2023-02-13T23:11:35.511Z,96451.13
2023-02-13T23:14:02.901Z,96466.78
2023-02-13T23:16:49.417Z,96468.72
2023-02-13T23:19:17.013Z,96477.72
2023-02-13T23:21:44.090Z,96456.22
2023-02-13T23:24:10.959Z,96471.31
2023-02-13T23:26:37.657Z,96465.03
2023-02-13T23:29:04.601Z,96457.31
2023-02-13T23:31:31.781Z,96477.25
2023-02-13T23:33:58.593Z,96491.94
2023-02-13T23:36:25.745Z,96460.47
2023-02-13T23:38:52.431Z,96471.81
2023-02-13T23:41:19.160Z,96466.94
2023-02-13T23:43:45.864Z,96465.88
2023-02-13T23:46:12.669Z,96442.03
2023-02-13T23:48:39.449Z,96461.66
2023-02-13T23:51:06.228Z,96475.94
2023-02-13T23:53:37.157Z,96475.13
2023-02-13T23:56:05.054Z,96472.63
2023-02-13T23:58:32.095Z,96482.34
